createdAt,value
2023-02-14T00:01:48.367Z,1.40
2023-02-14T00:04:17.516Z,1.70
2023-02-14T00:06:46.083Z,2.77
2023-02-14T00:09:15.456Z,1.43
2023-02-14T00:11:45.676Z,1.53
2023-02-14T00:14:47.204Z,1.77
2023-02-14T00:17:15.622Z,2.30
2023-02-14T00:19:44.118Z,1.40
2023-02-14T00:22:12.598Z,2.80
2023-02-14T00:24:41.107Z,1.40
2023-02-14T00:27:10.886Z,1.30
2023-02-14T00:29:39.377Z,1.83
2023-02-14T00:32:07.916Z,2.57
2023-02-14T00:34:36.733Z,2.70
2023-02-14T00:37:05.375Z,1.30
2023-02-14T00:39:33.827Z,1.37
2023-02-14T00:42:02.220Z,1.17
2023-02-14T00:44:32.225Z,1.30
2023-02-14T00:47:00.830Z,1.20
2023-02-14T00:49:29.243Z,1.30
2023-02-14T00:51:57.775Z,2.83
2023-02-14T00:54:26.390Z,1.60
2023-02-14T00:56:54.823Z,4.37
2023-02-14T00:59:23.330Z,1.80
2023-02-14T01:01:53.435Z,4.73
2023-02-14T01:04:21.816Z,3.83
2023-02-14T01:06:50.370Z,2.03
2023-02-14T01:09:18.901Z,1.83
2023-02-14T01:11:48.761Z,2.17
2023-02-14T01:14:17.364Z,2.10
2023-02-14T01:16:45.921Z,2.07
2023-02-14T01:19:15.756Z,1.37
2023-02-14T01:21:44.319Z,3.70
2023-02-14T01:24:13.195Z,2.63
2023-02-14T01:26:41.702Z,2.27
2023-02-14T01:29:10.225Z,3.77
2023-02-14T01:31:39.724Z,2.03
2023-02-14T01:34:08.395Z,2.70
2023-02-14T01:36:39.792Z,1.60
2023-02-14T01:39:09.976Z,2.13
2023-02-14T01:41:39.714Z,1.90
2023-02-14T01:44:09.725Z,3.23
2023-02-14T01:46:38.921Z,1.53
2023-02-14T01:49:09.534Z,2.60
2023-02-14T01:51:41.676Z,1.43
2023-02-14T01:54:11.196Z,2.43
2023-02-14T01:56:42.074Z,1.40
2023-02-14T01:59:14.826Z,2.30
2023-02-14T02:01:43.458Z,2.90
2023-02-14T02:04:13.613Z,1.40
2023-02-14T02:06:47.112Z,1.93
2023-02-14T02:09:18.628Z,1.00
2023-02-14T02:11:47.450Z,1.20
2023-02-14T02:14:17.045Z,1.17
2023-02-14T02:17:00.393Z,2.50
2023-02-14T02:19:47.363Z,2.13
2023-02-14T02:22:35.410Z,1.07
2023-02-14T02:25:12.219Z,1.10
2023-02-14T02:27:58.284Z,1.50
2023-02-14T02:30:44.695Z,1.17
2023-02-14T02:33:37.200Z,1.10
2023-02-14T02:36:32.928Z,1.80
2023-02-14T02:39:05.827Z,1.50
2023-02-14T02:41:39.936Z,1.40
2023-02-14T02:44:13.243Z,2.13
2023-02-14T02:46:50.543Z,1.30
2023-02-14T02:49:38.622Z,1.67
2023-02-14T02:52:27.571Z,2.70
2023-02-14T02:55:00.844Z,1.20
2023-02-14T02:57:30.575Z,1.30
2023-02-14T02:59:59.515Z,1.17
2023-02-14T03:02:30.740Z,1.33
2023-02-14T03:04:59.730Z,1.37
2023-02-14T03:07:39.364Z,1.43
2023-02-14T03:10:13.097Z,1.87
2023-02-14T03:13:08.074Z,1.37
2023-02-14T03:15:47.770Z,2.00
2023-02-14T03:18:41.764Z,1.60
2023-02-14T03:21:17.872Z,1.33
2023-02-14T03:23:49.886Z,3.43
2023-02-14T03:26:21.999Z,3.43
2023-02-14T03:28:55.161Z,1.97
2023-02-14T03:31:26.774Z,2.23
2023-02-14T03:34:00.205Z,1.53
2023-02-14T03:36:31.656Z,2.47
2023-02-14T03:39:04.484Z,3.23
2023-02-14T03:41:38.845Z,3.33
2023-02-14T03:44:10.240Z,4.10
2023-02-14T03:46:41.250Z,1.43
2023-02-14T03:49:11.958Z,3.10
2023-02-14T03:51:41.231Z,1.70
2023-02-14T03:54:11.304Z,1.80
2023-02-14T03:56:44.232Z,3.33
2023-02-14T03:59:15.547Z,1.73
2023-02-14T04:01:47.925Z,2.50
2023-02-14T04:04:17.384Z,1.80
2023-02-14T04:06:45.935Z,1.97
2023-02-14T04:09:14.463Z,3.20
2023-02-14T04:11:46.571Z,4.07
2023-02-14T04:14:15.062Z,2.37
2023-02-14T04:16:57.672Z,1.90
2023-02-14T04:19:26.191Z,3.00
2023-02-14T04:21:54.767Z,1.53
2023-02-14T04:24:23.425Z,1.80
2023-02-14T04:27:10.102Z,2.43
2023-02-14T04:29:39.632Z,1.50
2023-02-14T04:32:09.034Z,2.30
2023-02-14T04:34:37.735Z,1.97
2023-02-14T04:37:06.683Z,3.43
2023-02-14T04:39:35.255Z,1.43
2023-02-14T04:42:05.651Z,1.67
2023-02-14T04:44:35.155Z,1.67
2023-02-14T04:47:03.742Z,2.20
2023-02-14T04:49:32.244Z,4.47
2023-02-14T04:52:01.187Z,1.40
2023-02-14T04:54:29.801Z,1.90
2023-02-14T04:56:58.468Z,3.23
2023-02-14T04:59:28.736Z,1.50
2023-02-14T05:01:57.268Z,2.30
2023-02-14T05:04:25.911Z,1.80
2023-02-14T05:06:54.470Z,1.70
2023-02-14T05:09:23.056Z,3.37
2023-02-14T05:11:51.638Z,2.60
2023-02-14T05:14:20.312Z,1.40
2023-02-14T05:16:50.188Z,2.10
2023-02-14T05:19:18.832Z,1.80
2023-02-14T05:21:47.451Z,1.90
2023-02-14T05:24:18.465Z,1.83
2023-02-14T05:26:47.078Z,1.90
2023-02-14T05:29:18.003Z,1.20
2023-02-14T05:31:46.495Z,1.67
2023-02-14T05:34:18.979Z,1.30
2023-02-14T05:36:47.455Z,2.00
2023-02-14T05:39:16.158Z,1.23
2023-02-14T05:41:44.757Z,1.23
2023-02-14T05:44:13.233Z,1.53
2023-02-14T05:46:41.824Z,1.97
2023-02-14T05:49:10.409Z,2.23
2023-02-14T05:51:40.307Z,1.30
2023-02-14T05:54:10.837Z,1.57
2023-02-14T05:56:39.666Z,3.23
2023-02-14T05:59:08.134Z,1.03
2023-02-14T06:01:36.699Z,3.50
2023-02-14T06:04:05.369Z,1.87
2023-02-14T06:06:36.237Z,0.93
2023-02-14T06:09:06.828Z,2.50
2023-02-14T06:11:35.322Z,4.30
2023-02-14T06:14:03.795Z,1.30
2023-02-14T06:16:32.558Z,1.10
2023-02-14T06:19:01.064Z,1.40
2023-02-14T06:21:29.536Z,1.57
2023-02-14T06:23:58.396Z,0.70
2023-02-14T06:26:28.307Z,1.93
2023-02-14T06:28:57.096Z,1.13
2023-02-14T06:31:26.356Z,1.63
2023-02-14T06:33:55.005Z,3.00
2023-02-14T06:36:23.788Z,1.03
2023-02-14T06:38:52.674Z,1.10
2023-02-14T06:41:21.163Z,2.57
2023-02-14T06:43:51.024Z,2.87
2023-02-14T06:46:20.476Z,3.53
2023-02-14T06:48:49.351Z,1.47
2023-02-14T06:51:17.952Z,1.37
2023-02-14T06:53:46.532Z,1.17
2023-02-14T06:56:15.005Z,4.67
2023-02-14T06:58:43.525Z,1.67
2023-02-14T07:01:13.558Z,2.70
2023-02-14T07:03:42.038Z,3.63
2023-02-14T07:06:10.733Z,3.03
2023-02-14T07:08:40.691Z,5.63
2023-02-14T07:11:09.164Z,4.00
2023-02-14T07:13:37.815Z,6.07
2023-02-14T07:16:06.629Z,2.83
2023-02-14T07:18:36.568Z,5.00
2023-02-14T07:21:05.219Z,5.13
2023-02-14T07:23:33.795Z,1.70
2023-02-14T07:26:02.258Z,4.10
2023-02-14T07:28:31.489Z,0.90
2023-02-14T07:31:02.016Z,6.03
2023-02-14T07:33:30.827Z,2.80
2023-02-14T07:36:00.769Z,1.33
2023-02-14T07:38:30.579Z,1.67
2023-02-14T07:40:59.499Z,2.10
2023-02-14T07:43:28.267Z,2.20
2023-02-14T07:45:56.996Z,1.93
2023-02-14T07:48:25.874Z,2.33
2023-02-14T07:50:56.757Z,1.10
2023-02-14T07:53:27.003Z,1.37
2023-02-14T07:55:55.519Z,1.27
2023-02-14T07:58:25.329Z,2.43
2023-02-14T08:00:53.911Z,1.50
2023-02-14T08:03:22.416Z,1.40
2023-02-14T08:05:57.482Z,2.17
2023-02-14T08:08:28.702Z,1.53
2023-02-14T08:10:57.597Z,1.70
2023-02-14T08:13:26.661Z,1.90
2023-02-14T08:16:07.692Z,2.40
2023-02-14T08:18:37.615Z,2.17
2023-02-14T08:21:06.825Z,2.27
2023-02-14T08:23:36.761Z,1.20
2023-02-14T08:26:05.733Z,1.50
2023-02-14T08:28:35.001Z,1.27
2023-02-14T08:31:04.303Z,1.63
2023-02-14T08:33:33.112Z,1.20
2023-02-14T08:36:02.632Z,2.67
2023-02-14T08:38:31.374Z,4.07
2023-02-14T08:41:06.748Z,3.37
2023-02-14T08:43:36.722Z,1.13
2023-02-14T08:46:08.179Z,4.53
2023-02-14T08:48:39.375Z,1.40
2023-02-14T08:51:08.463Z,2.27
2023-02-14T08:53:37.248Z,1.60
2023-02-14T08:56:08.157Z,2.00
2023-02-14T08:58:36.893Z,2.87
2023-02-14T09:01:09.829Z,5.63
2023-02-14T09:03:38.785Z,3.90
2023-02-14T09:06:08.154Z,3.33
2023-02-14T09:08:37.016Z,5.03
2023-02-14T09:11:10.351Z,4.73
2023-02-14T09:13:39.154Z,6.80
2023-02-14T09:16:08.145Z,2.33
2023-02-14T09:18:36.683Z,3.00
2023-02-14T09:21:08.997Z,2.50
2023-02-14T09:23:38.647Z,3.30
2023-02-14T09:26:08.528Z,3.73
2023-02-14T09:28:38.595Z,2.60
2023-02-14T09:31:10.947Z,2.27
2023-02-14T09:33:40.163Z,2.87
2023-02-14T09:36:27.064Z,2.50
2023-02-14T09:38:55.888Z,2.20
2023-02-14T09:41:40.242Z,2.13
2023-02-14T09:44:11.197Z,3.77
2023-02-14T09:46:47.445Z,2.20
2023-02-14T09:49:17.556Z,3.07
2023-02-14T09:51:47.988Z,3.13
2023-02-14T09:54:21.877Z,2.20
2023-02-14T09:56:52.761Z,2.17
2023-02-14T09:59:26.242Z,2.17
2023-02-14T10:01:59.888Z,5.53
2023-02-14T10:04:32.324Z,2.10
2023-02-14T10:07:03.591Z,6.40
2023-02-14T10:09:39.229Z,3.17
2023-02-14T10:12:11.024Z,2.93
2023-02-14T10:14:41.668Z,3.43
2023-02-14T10:17:12.071Z,3.83
2023-02-14T10:19:42.627Z,2.40
2023-02-14T10:22:14.447Z,2.30
2023-02-14T10:24:45.361Z,1.80
2023-02-14T10:27:29.239Z,1.73
2023-02-14T10:29:59.244Z,1.50
2023-02-14T10:32:31.192Z,1.60
2023-02-14T10:35:02.525Z,3.23
2023-02-14T10:37:38.059Z,2.83
2023-02-14T10:40:17.522Z,1.83
2023-02-14T10:42:52.549Z,3.03
2023-02-14T10:45:27.752Z,2.03
2023-02-14T10:48:00.227Z,3.30
2023-02-14T10:50:31.186Z,1.27
2023-02-14T10:53:04.794Z,2.50
2023-02-14T10:55:39.604Z,1.27
2023-02-14T10:58:09.064Z,2.57
2023-02-14T11:00:40.461Z,1.90
2023-02-14T11:03:10.955Z,2.50
2023-02-14T11:05:42.819Z,4.53
2023-02-14T11:08:21.395Z,1.43
2023-02-14T11:10:50.144Z,1.33
2023-02-14T11:13:32.764Z,1.07
2023-02-14T11:16:04.293Z,0.80
2023-02-14T11:18:35.984Z,0.70
2023-02-14T11:21:06.143Z,1.70
2023-02-14T11:23:35.762Z,0.80
2023-02-14T11:26:05.524Z,0.80
2023-02-14T11:28:36.984Z,1.10
2023-02-14T11:31:07.007Z,2.20
2023-02-14T11:33:37.193Z,1.07
2023-02-14T11:36:06.844Z,0.87
2023-02-14T11:38:38.437Z,2.97
2023-02-14T11:41:08.236Z,0.83
2023-02-14T11:43:38.324Z,0.90
2023-02-14T11:46:10.653Z,0.70
2023-02-14T11:48:39.813Z,0.80
2023-02-14T11:51:09.916Z,0.73
2023-02-14T11:53:46.479Z,1.37
2023-02-14T11:56:16.352Z,0.90
2023-02-14T11:58:50.302Z,0.87
2023-02-14T12:01:25.381Z,0.90
2023-02-14T12:03:54.702Z,1.33
2023-02-14T12:06:25.668Z,1.70
2023-02-14T12:08:54.188Z,1.50
2023-02-14T12:11:23.457Z,1.70
2023-02-14T12:13:55.612Z,1.50
2023-02-14T12:16:28.703Z,1.97
2023-02-14T12:18:59.186Z,2.53
2023-02-14T12:21:39.997Z,1.97
2023-02-14T12:24:15.291Z,2.27
2023-02-14T12:26:46.638Z,2.93
2023-02-14T12:29:18.439Z,2.27
2023-02-14T12:31:49.114Z,2.00
2023-02-14T12:34:18.788Z,1.67
2023-02-14T12:36:55.411Z,1.70
2023-02-14T12:39:27.828Z,1.50
2023-02-14T12:42:03.015Z,3.43
2023-02-14T12:44:36.100Z,1.70
2023-02-14T12:47:15.592Z,3.80
2023-02-14T12:49:59.743Z,3.63
2023-02-14T12:52:35.685Z,2.27
2023-02-14T12:55:11.478Z,2.00
2023-02-14T12:57:43.764Z,1.70
2023-02-14T13:00:19.237Z,1.70
2023-02-14T13:03:03.474Z,1.60
2023-02-14T13:05:36.465Z,1.67
2023-02-14T13:08:12.159Z,1.70
2023-02-14T13:10:47.395Z,1.77
2023-02-14T13:13:20.532Z,1.83
2023-02-14T13:15:53.217Z,1.50
2023-02-14T13:18:28.546Z,1.57
2023-02-14T13:20:59.032Z,1.40
2023-02-14T13:23:30.577Z,1.37
2023-02-14T13:26:01.983Z,2.57
2023-02-14T13:28:31.714Z,2.23
2023-02-14T13:31:01.915Z,1.77
2023-02-14T13:33:35.155Z,1.40
2023-02-14T13:36:05.091Z,1.60
2023-02-14T13:38:33.836Z,1.80
2023-02-14T13:41:05.526Z,3.77
2023-02-14T13:43:48.818Z,3.30
2023-02-14T13:46:18.587Z,3.40
2023-02-14T13:48:59.550Z,1.93
2023-02-14T13:51:44.014Z,3.67
2023-02-14T13:54:22.326Z,2.40
2023-02-14T13:56:50.948Z,4.70
2023-02-14T13:59:27.916Z,3.43
2023-02-14T14:01:56.808Z,4.83
2023-02-14T14:04:39.847Z,7.97
2023-02-14T14:07:30.120Z,9.47
2023-02-14T14:10:03.262Z,8.97
2023-02-14T14:12:42.015Z,9.37
2023-02-14T14:15:17.880Z,6.03
2023-02-14T14:17:47.771Z,10.77
2023-02-14T14:20:39.442Z,8.03
2023-02-14T14:23:28.251Z,6.03
2023-02-14T14:25:56.857Z,6.90
2023-02-14T14:28:27.319Z,6.53
2023-02-14T14:30:56.031Z,9.83
2023-02-14T14:33:28.449Z,9.47
2023-02-14T14:35:59.500Z,7.57
2023-02-14T14:38:28.739Z,6.00
2023-02-14T14:40:57.694Z,9.20
2023-02-14T14:43:28.414Z,8.63
2023-02-14T14:45:58.927Z,8.30
2023-02-14T14:48:31.210Z,7.97
2023-02-14T14:51:01.418Z,7.07
2023-02-14T14:53:30.814Z,7.47
2023-02-14T14:55:59.927Z,8.67
2023-02-14T14:58:34.187Z,8.47
2023-02-14T15:01:02.805Z,9.53
2023-02-14T15:03:31.733Z,9.33
2023-02-14T15:06:10.186Z,6.23
2023-02-14T15:08:38.703Z,6.90
2023-02-14T15:11:09.684Z,7.27
2023-02-14T15:13:53.899Z,7.23
2023-02-14T15:16:23.574Z,8.33
2023-02-14T15:18:52.973Z,8.03
2023-02-14T15:21:22.968Z,8.37
2023-02-14T15:23:51.626Z,6.83
2023-02-14T15:26:21.483Z,5.53
2023-02-14T15:28:56.319Z,7.67
2023-02-14T15:31:26.244Z,6.43
2023-02-14T15:33:54.811Z,5.60
2023-02-14T15:36:27.877Z,6.27
2023-02-14T15:38:57.914Z,10.47
2023-02-14T15:41:26.956Z,10.77
2023-02-14T15:43:56.572Z,6.13
2023-02-14T15:46:31.745Z,6.80
2023-02-14T15:49:01.667Z,9.60
2023-02-14T15:51:33.433Z,7.63
2023-02-14T15:54:03.346Z,10.57
2023-02-14T15:56:33.442Z,9.30
2023-02-14T15:59:03.316Z,11.50
2023-02-14T16:01:32.574Z,7.03
2023-02-14T16:04:02.608Z,9.10
2023-02-14T16:06:34.095Z,9.60
2023-02-14T16:09:03.111Z,8.00
2023-02-14T16:11:35.203Z,6.87
2023-02-14T16:14:18.499Z,9.53
2023-02-14T16:17:00.018Z,8.50
2023-02-14T16:19:39.402Z,9.37
2023-02-14T16:22:10.796Z,14.07
2023-02-14T16:24:40.401Z,9.10
2023-02-14T16:27:09.206Z,10.43
2023-02-14T16:29:41.279Z,11.30
2023-02-14T16:32:16.587Z,10.27
2023-02-14T16:34:47.585Z,9.93
2023-02-14T16:37:22.360Z,8.70
2023-02-14T16:39:51.835Z,9.03
2023-02-14T16:42:20.785Z,8.33
2023-02-14T16:44:49.411Z,11.03
2023-02-14T16:47:19.522Z,9.30
2023-02-14T16:49:48.669Z,11.70
2023-02-14T16:52:18.816Z,11.50
2023-02-14T16:54:49.004Z,9.73
2023-02-14T16:57:20.679Z,11.73
2023-02-14T16:59:49.463Z,13.50
2023-02-14T17:02:19.101Z,9.83
2023-02-14T17:04:47.716Z,10.50
2023-02-14T17:07:17.551Z,10.77
2023-02-14T17:09:47.873Z,10.90
2023-02-14T17:12:20.699Z,10.40
2023-02-14T17:14:51.742Z,10.90
2023-02-14T17:17:20.380Z,12.93
2023-02-14T17:19:50.846Z,11.50
2023-02-14T17:22:21.004Z,12.57
2023-02-14T17:24:49.583Z,12.03
2023-02-14T17:27:19.444Z,13.97
2023-02-14T17:29:48.006Z,12.70
2023-02-14T17:32:16.885Z,10.40
2023-02-14T17:34:45.809Z,16.10
2023-02-14T17:37:14.380Z,15.77
2023-02-14T17:39:43.006Z,9.93
2023-02-14T17:42:12.155Z,14.43
2023-02-14T17:44:42.214Z,14.37
2023-02-14T17:47:10.776Z,14.03
2023-02-14T17:49:39.250Z,16.70
2023-02-14T17:52:07.831Z,19.30
2023-02-14T17:54:38.499Z,14.20
2023-02-14T17:57:07.166Z,11.23
2023-02-14T17:59:35.735Z,12.90
2023-02-14T18:02:05.789Z,14.53
2023-02-14T18:04:36.226Z,13.00
2023-02-14T18:07:04.783Z,16.47
2023-02-14T18:09:33.778Z,14.00
2023-02-14T18:12:02.461Z,17.63
2023-02-14T18:14:31.488Z,16.87
2023-02-14T18:17:00.124Z,13.10
2023-02-14T18:19:30.083Z,13.03
2023-02-14T18:21:58.556Z,16.37
2023-02-14T18:24:27.224Z,13.97
2023-02-14T18:26:56.508Z,13.87
2023-02-14T18:29:24.994Z,12.30
2023-02-14T18:31:53.754Z,19.27
2023-02-14T18:34:22.445Z,13.43
2023-02-14T18:36:52.324Z,14.10
2023-02-14T18:39:21.176Z,16.10
2023-02-14T18:41:49.744Z,15.50
2023-02-14T18:44:18.242Z,14.43
2023-02-14T18:46:46.839Z,19.77
2023-02-14T18:49:15.490Z,15.87
2023-02-14T18:51:44.005Z,15.63
2023-02-14T18:54:14.688Z,17.13
2023-02-14T18:56:43.216Z,11.60
2023-02-14T18:59:13.330Z,14.07
2023-02-14T19:01:44.015Z,16.97
2023-02-14T19:04:13.558Z,13.20
2023-02-14T19:06:43.066Z,14.47
2023-02-14T19:09:12.778Z,16.50
2023-02-14T19:11:42.762Z,16.63
2023-02-14T19:14:12.728Z,14.43
2023-02-14T19:16:50.209Z,18.87
2023-02-14T19:19:19.052Z,18.10
2023-02-14T19:21:48.469Z,17.27
2023-02-14T19:24:17.958Z,15.27
2023-02-14T19:26:48.486Z,16.83
2023-02-14T19:29:18.107Z,18.17
2023-02-14T19:31:48.540Z,14.37
2023-02-14T19:34:18.071Z,16.67
2023-02-14T19:36:46.679Z,15.70
2023-02-14T19:39:15.384Z,14.07
2023-02-14T19:41:45.271Z,16.30
2023-02-14T19:44:17.282Z,13.43
2023-02-14T19:46:47.739Z,14.80
2023-02-14T19:49:17.003Z,16.67
2023-02-14T19:51:45.770Z,15.87
2023-02-14T19:54:15.490Z,17.47
2023-02-14T19:56:44.843Z,13.20
2023-02-14T19:59:16.457Z,16.40
2023-02-14T20:01:47.902Z,17.33
2023-02-14T20:04:17.740Z,19.03
2023-02-14T20:06:46.745Z,15.10
2023-02-14T20:09:15.759Z,15.83
2023-02-14T20:11:50.190Z,18.30
2023-02-14T20:14:19.551Z,19.80
2023-02-14T20:16:49.741Z,14.33
2023-02-14T20:19:19.257Z,17.13
2023-02-14T20:21:48.625Z,15.43
2023-02-14T20:24:17.851Z,21.90
2023-02-14T20:26:47.554Z,17.27
2023-02-14T20:29:16.705Z,16.83
2023-02-14T20:31:46.518Z,22.43
2023-02-14T20:34:16.604Z,16.40
2023-02-14T20:36:49.384Z,19.67
2023-02-14T20:39:18.060Z,21.80
2023-02-14T20:41:50.282Z,18.47
2023-02-14T20:44:21.759Z,17.63
2023-02-14T20:46:51.573Z,17.07
2023-02-14T20:49:21.935Z,17.07
2023-02-14T20:51:51.539Z,17.43
2023-02-14T20:54:20.354Z,17.87
2023-02-14T20:56:48.876Z,17.03
2023-02-14T20:59:19.363Z,18.87
2023-02-14T21:01:47.887Z,16.87
2023-02-14T21:04:16.748Z,18.03
2023-02-14T21:06:47.839Z,15.43
2023-02-14T21:09:16.607Z,20.67
2023-02-14T21:11:45.110Z,18.87
2023-02-14T21:14:13.728Z,18.47
2023-02-14T21:16:42.199Z,19.33
2023-02-14T21:19:10.663Z,16.40
2023-02-14T21:21:40.014Z,19.60
2023-02-14T21:24:10.876Z,17.97
2023-02-14T21:26:39.910Z,15.37
2023-02-14T21:29:08.620Z,18.40
2023-02-14T21:31:37.368Z,23.30
2023-02-14T21:34:05.984Z,19.63
2023-02-14T21:36:36.546Z,21.13
2023-02-14T21:39:06.706Z,22.07
2023-02-14T21:41:37.457Z,16.57
2023-02-14T21:44:06.406Z,21.87
2023-02-14T21:46:36.055Z,18.47
2023-02-14T21:49:24.129Z,20.00
2023-02-14T21:51:52.694Z,17.57
2023-02-14T21:54:21.154Z,16.63
2023-02-14T21:56:51.106Z,16.37
2023-02-14T21:59:19.845Z,16.87
2023-02-14T22:01:48.384Z,19.57
2023-02-14T22:04:17.024Z,15.73
2023-02-14T22:06:45.596Z,22.77
2023-02-14T22:09:17.498Z,18.70
2023-02-14T22:11:47.570Z,18.77
2023-02-14T22:14:17.567Z,15.07
2023-02-14T22:16:46.184Z,18.20
2023-02-14T22:19:15.530Z,16.57
2023-02-14T22:21:44.200Z,19.80
2023-02-14T22:24:12.876Z,16.03
2023-02-14T22:26:41.825Z,16.93
2023-02-14T22:29:11.826Z,18.00
2023-02-14T22:31:43.132Z,17.97
2023-02-14T22:34:12.753Z,16.27
2023-02-14T22:36:41.260Z,22.47
2023-02-14T22:39:10.150Z,18.37
2023-02-14T22:41:38.894Z,18.57
2023-02-14T22:44:08.148Z,21.23
2023-02-14T22:46:38.043Z,17.97
2023-02-14T22:49:08.459Z,19.03
2023-02-14T22:51:37.698Z,16.17
2023-02-14T22:54:07.381Z,19.30
2023-02-14T22:56:38.870Z,22.27
2023-02-14T22:59:08.342Z,15.63
2023-02-14T23:01:37.276Z,17.00
2023-02-14T23:04:06.508Z,21.43
2023-02-14T23:06:37.134Z,22.77
2023-02-14T23:09:06.393Z,18.47
2023-02-14T23:11:36.118Z,20.07
2023-02-14T23:14:22.617Z,17.37
2023-02-14T23:17:20.535Z,22.50
2023-02-14T23:20:06.853Z,15.43
2023-02-14T23:22:37.926Z,24.87
2023-02-14T23:25:07.552Z,17.33
2023-02-14T23:27:36.887Z,18.70
2023-02-14T23:30:06.685Z,16.30
2023-02-14T23:32:35.424Z,19.53
2023-02-14T23:35:04.025Z,20.67
2023-02-14T23:37:32.490Z,21.57
2023-02-14T23:40:02.463Z,19.20
2023-02-14T23:42:31.152Z,19.27
2023-02-14T23:45:20.091Z,17.97
2023-02-14T23:47:48.605Z,16.97
2023-02-14T23:50:17.323Z,19.37
2023-02-14T23:52:45.919Z,16.63
2023-02-14T23:55:15.775Z,24.47
2023-02-14T23:57:44.432Z,20.50
